createdAt,value
2019-01-23T00:00:53.895Z,-1.80
2019-01-23T00:03:22.463Z,-1.80
2019-01-23T00:05:50.942Z,-1.90
2019-01-23T00:08:19.393Z,-1.90
2019-01-23T00:10:47.843Z,-1.90
2019-01-23T00:13:16.303Z,-1.90
2019-01-23T00:15:45.111Z,-1.90
2019-01-23T00:18:13.571Z,-1.90
2019-01-23T00:20:42.010Z,-1.80
2019-01-23T00:23:29.820Z,-1.80
2019-01-23T00:25:58.279Z,-1.80
2019-01-23T00:28:27.698Z,-1.90
2019-01-23T00:30:56.242Z,-1.90
2019-01-23T00:33:24.690Z,-1.90
2019-01-23T00:35:53.161Z,-1.90
2019-01-23T00:38:21.661Z,-1.90
2019-01-23T00:40:50.127Z,-1.90
2019-01-23T00:43:18.574Z,-2.00
2019-01-23T00:45:47.320Z,-1.90
2019-01-23T00:48:15.762Z,-1.90
2019-01-23T00:50:44.240Z,-2.00
2019-01-23T00:53:12.695Z,-2.00
2019-01-23T00:55:41.158Z,-1.90
2019-01-23T00:58:10.397Z,-1.90
2019-01-23T01:00:38.985Z,-1.90
2019-01-23T01:03:07.684Z,-1.90
2019-01-23T01:05:36.223Z,-1.90
2019-01-23T01:08:04.907Z,-2.00
2019-01-23T01:10:33.586Z,-2.10
2019-01-23T01:13:02.061Z,-2.00
2019-01-23T01:15:30.587Z,-2.00
2019-01-23T01:17:59.794Z,-2.00
2019-01-23T01:20:49.846Z,-1.90
2019-01-23T01:23:18.288Z,-1.90
2019-01-23T01:25:46.770Z,-1.90
2019-01-23T01:28:15.669Z,-1.90
2019-01-23T01:30:44.981Z,-2.00
2019-01-23T01:33:14.378Z,-2.00
2019-01-23T01:36:02.382Z,-2.10
2019-01-23T01:38:32.486Z,-2.00
2019-01-23T01:41:00.928Z,-2.10
2019-01-23T01:43:29.371Z,-2.00
2019-01-23T01:45:57.910Z,-2.00
2019-01-23T01:48:26.425Z,-2.00
2019-01-23T01:50:54.959Z,-2.10
2019-01-23T01:53:23.403Z,-2.00
2019-01-23T01:55:51.916Z,-2.00
2019-01-23T01:58:20.350Z,-1.90
2019-01-23T02:00:48.938Z,-2.00
2019-01-23T02:03:17.414Z,-2.00
2019-01-23T02:05:45.881Z,-2.00
2019-01-23T02:08:33.800Z,-2.10
2019-01-23T02:11:02.250Z,-2.20
2019-01-23T02:13:30.769Z,-2.10
2019-01-23T02:15:59.227Z,-2.10
2019-01-23T02:18:27.675Z,-2.10
2019-01-23T02:20:56.679Z,-2.10
2019-01-23T02:23:25.114Z,-2.10
2019-01-23T02:25:53.583Z,-2.10
2019-01-23T02:28:41.382Z,-2.10
2019-01-23T02:31:29.104Z,-2.20
2019-01-23T02:33:57.552Z,-2.20
2019-01-23T02:36:25.987Z,-2.30
2019-01-23T02:38:54.448Z,-2.30
2019-01-23T02:41:42.233Z,-2.30
2019-01-23T02:44:10.721Z,-2.30
2019-01-23T02:46:39.231Z,-2.30
2019-01-23T02:49:07.699Z,-2.30
2019-01-23T02:51:36.218Z,-2.40
2019-01-23T02:54:04.927Z,-2.50
2019-01-23T02:56:33.455Z,-2.50
2019-01-23T02:59:01.886Z,-2.40
2019-01-23T03:01:42.727Z,-2.40
2019-01-23T03:04:11.235Z,-2.30
2019-01-23T03:06:59.042Z,-2.30
2019-01-23T03:09:27.487Z,-2.30
2019-01-23T03:12:01.678Z,-2.30
2019-01-23T03:14:49.692Z,-2.40
2019-01-23T03:17:18.230Z,-2.40
2019-01-23T03:19:46.961Z,-2.40
2019-01-23T03:22:21.075Z,-2.50
2019-01-23T03:24:49.689Z,-2.40
2019-01-23T03:27:18.127Z,-2.40
2019-01-23T03:29:46.671Z,-2.30
2019-01-23T03:32:15.109Z,-2.30
2019-01-23T03:34:43.694Z,-2.30
2019-01-23T03:37:12.195Z,-2.30
2019-01-23T03:39:40.731Z,-2.30
2019-01-23T03:42:09.205Z,-2.30
2019-01-23T03:44:56.984Z,-2.20
2019-01-23T03:47:25.467Z,-2.30
2019-01-23T03:49:53.937Z,-2.30
2019-01-23T03:52:22.441Z,-2.20
2019-01-23T03:55:11.279Z,-2.20
2019-01-23T03:57:39.809Z,-2.20
2019-01-23T04:00:20.430Z,-2.30
2019-01-23T04:02:50.321Z,-2.20
2019-01-23T04:05:19.023Z,-2.20
2019-01-23T04:07:47.697Z,-2.20
2019-01-23T04:10:17.481Z,-2.30
2019-01-23T04:12:46.101Z,-2.30
2019-01-23T04:15:34.038Z,-2.30
2019-01-23T04:18:02.488Z,-2.30
2019-01-23T04:20:30.946Z,-2.40
2019-01-23T04:22:59.396Z,-2.40
2019-01-23T04:25:28.003Z,-2.30
2019-01-23T04:27:56.794Z,-2.40
2019-01-23T04:30:25.379Z,-2.40
2019-01-23T04:32:53.896Z,-2.50
2019-01-23T04:35:22.511Z,-2.60
2019-01-23T04:37:51.089Z,-2.50
2019-01-23T04:40:19.612Z,-2.50
2019-01-23T04:42:48.314Z,-2.60
2019-01-23T04:45:17.394Z,-2.60
2019-01-23T04:47:50.646Z,-2.60
2019-01-23T04:50:19.155Z,-2.60
2019-01-23T04:53:04.751Z,-2.60
2019-01-23T04:55:33.967Z,-2.60
2019-01-23T04:58:02.444Z,-2.50
2019-01-23T05:00:32.526Z,-2.60
2019-01-23T05:03:01.287Z,-2.60
2019-01-23T05:05:29.732Z,-2.70
2019-01-23T05:07:58.251Z,-2.80
2019-01-23T05:10:26.778Z,-2.80
2019-01-23T05:12:55.227Z,-2.70
2019-01-23T05:15:23.696Z,-2.70
2019-01-23T05:17:52.152Z,-2.70
2019-01-23T05:20:20.754Z,-2.80
2019-01-23T05:22:49.202Z,-2.80
2019-01-23T05:25:17.644Z,-2.80
2019-01-23T05:27:46.203Z,-2.80
2019-01-23T05:30:20.171Z,-2.80
2019-01-23T05:32:48.614Z,-2.90
2019-01-23T05:35:17.349Z,-2.90
2019-01-23T05:37:45.835Z,-3.00
2019-01-23T05:40:14.951Z,-2.90
2019-01-23T05:42:43.443Z,-2.90
2019-01-23T05:45:14.390Z,-2.90
2019-01-23T05:47:42.984Z,-2.90
2019-01-23T05:50:16.826Z,-3.00
2019-01-23T05:55:34.687Z,-3.00
2019-01-23T05:58:03.131Z,-3.00
2019-01-23T06:00:31.566Z,-3.10
2019-01-23T06:03:00.024Z,-3.10
2019-01-23T06:05:28.538Z,-3.00
2019-01-23T06:07:57.073Z,-3.00
2019-01-23T06:10:25.581Z,-3.00
2019-01-23T06:12:54.030Z,-3.00
2019-01-23T06:15:22.475Z,-3.10
2019-01-23T06:17:50.938Z,-3.10
2019-01-23T06:20:20.814Z,-3.10
2019-01-23T06:22:49.419Z,-3.00
2019-01-23T06:25:19.520Z,-3.10
2019-01-23T06:28:07.294Z,-3.10
2019-01-23T06:30:35.761Z,-3.00
2019-01-23T06:33:04.208Z,-3.00
2019-01-23T06:35:32.738Z,-3.10
2019-01-23T06:38:01.193Z,-3.20
2019-01-23T06:40:29.690Z,-3.10
2019-01-23T06:42:58.159Z,-3.00
2019-01-23T06:45:26.669Z,-3.00
2019-01-23T06:47:55.139Z,-3.00
2019-01-23T06:50:23.694Z,-3.00
2019-01-23T06:52:52.279Z,-3.00
2019-01-23T06:55:20.983Z,-3.10
2019-01-23T06:57:49.425Z,-3.00
2019-01-23T07:00:20.403Z,-3.00
2019-01-23T07:03:08.184Z,-3.00
2019-01-23T07:05:36.643Z,-3.00
2019-01-23T07:08:05.082Z,-3.10
2019-01-23T07:10:33.620Z,-3.10
2019-01-23T07:13:02.123Z,-3.10
2019-01-23T07:15:30.652Z,-3.10
2019-01-23T07:17:59.166Z,-3.10
2019-01-23T07:20:27.738Z,-3.20
2019-01-23T07:22:56.331Z,-3.10
2019-01-23T07:25:25.108Z,-3.10
2019-01-23T07:27:53.637Z,-3.10
2019-01-23T07:30:24.816Z,-3.20
2019-01-23T07:32:53.347Z,-3.20
2019-01-23T07:35:22.109Z,-3.20
2019-01-23T07:37:50.545Z,-3.30
2019-01-23T07:40:19.024Z,-3.30
2019-01-23T07:42:47.527Z,-3.40
2019-01-23T07:45:21.878Z,-3.40
2019-01-23T07:47:50.386Z,-3.40
2019-01-23T07:50:19.171Z,-3.40
2019-01-23T07:52:47.764Z,-3.50
2019-01-23T07:55:18.254Z,-3.50
2019-01-23T07:57:46.712Z,-3.50
2019-01-23T08:00:17.292Z,-3.50
2019-01-23T08:02:45.739Z,-3.50
2019-01-23T08:05:19.632Z,-3.40
2019-01-23T08:07:47.959Z,-3.40
2019-01-23T08:10:18.239Z,-3.40
2019-01-23T08:12:47.015Z,-3.40
2019-01-23T08:15:20.853Z,-3.40
2019-01-23T08:17:49.435Z,-3.40
2019-01-23T08:20:20.801Z,-3.30
2019-01-23T08:22:49.423Z,-3.30
2019-01-23T08:25:18.236Z,-3.10
2019-01-23T08:27:47.007Z,-3.00
2019-01-23T08:30:18.359Z,-2.90
2019-01-23T08:32:46.956Z,-2.90
2019-01-23T08:35:36.705Z,-2.90
2019-01-23T08:38:05.311Z,-2.90
2019-01-23T08:40:53.167Z,-2.90
2019-01-23T08:43:21.715Z,-2.90
2019-01-23T08:45:50.187Z,-3.00
2019-01-23T08:48:18.623Z,-2.90
2019-01-23T08:50:47.105Z,-2.80
2019-01-23T08:53:15.726Z,-2.80
2019-01-23T08:55:44.281Z,-2.70
2019-01-23T08:58:12.726Z,-2.70
2019-01-23T09:00:45.854Z,-2.60
2019-01-23T09:03:11.744Z,-2.70
2019-01-23T09:05:40.379Z,-2.70
2019-01-23T09:08:09.073Z,-2.60
2019-01-23T09:10:39.399Z,-2.50
2019-01-23T09:13:07.923Z,-2.30
2019-01-23T09:15:36.365Z,-2.00
2019-01-23T09:18:07.006Z,-1.90
2019-01-23T09:20:35.875Z,-1.70
2019-01-23T09:23:04.559Z,-1.60
2019-01-23T09:25:33.079Z,-1.60
2019-01-23T09:28:01.534Z,-1.60
2019-01-23T09:30:42.403Z,-1.60
2019-01-23T09:33:23.031Z,-1.50
2019-01-23T09:35:59.791Z,-1.70
2019-01-23T09:38:50.136Z,-1.60
2019-01-23T09:41:46.630Z,-1.80
2019-01-23T09:44:38.647Z,-1.70
2019-01-23T09:47:13.125Z,-1.70
2019-01-23T09:49:56.746Z,-1.40
2019-01-23T09:52:49.036Z,-1.60
2019-01-23T09:55:17.492Z,-1.30
2019-01-23T09:57:46.391Z,-1.40
2019-01-23T10:00:18.173Z,-1.40
2019-01-23T10:02:46.666Z,-1.40
2019-01-23T10:05:15.466Z,-1.00
2019-01-23T10:07:43.998Z,-0.80
2019-01-23T10:10:16.988Z,-1.00
2019-01-23T10:13:05.038Z,-0.80
2019-01-23T10:15:36.598Z,-0.60
2019-01-23T10:18:05.211Z,-0.50
2019-01-23T10:20:33.730Z,-0.50
2019-01-23T10:23:02.279Z,-0.60
2019-01-23T10:25:30.727Z,-0.60
2019-01-23T10:27:59.190Z,0.10
2019-01-23T10:30:27.634Z,0.00
2019-01-23T10:32:56.251Z,0.00
2019-01-23T10:35:44.122Z,-0.20
2019-01-23T10:38:12.595Z,-0.60
2019-01-23T10:41:00.388Z,-0.20
2019-01-23T10:43:28.858Z,0.00
2019-01-23T10:45:57.329Z,-0.10
2019-01-23T10:48:25.862Z,-0.20
2019-01-23T10:50:54.328Z,-0.40
2019-01-23T10:53:22.775Z,-0.50
2019-01-23T10:55:51.235Z,-0.70
2019-01-23T10:58:19.850Z,-0.60
2019-01-23T11:00:48.371Z,-0.70
2019-01-23T11:03:16.857Z,-0.90
2019-01-23T11:05:45.387Z,-0.60
2019-01-23T11:08:13.865Z,-0.40
2019-01-23T11:10:42.539Z,-0.30
2019-01-23T11:13:11.146Z,-0.30
2019-01-23T11:15:39.590Z,-0.20
2019-01-23T11:18:08.187Z,-0.20
2019-01-23T11:20:36.739Z,-0.50
2019-01-23T11:23:05.254Z,-0.70
2019-01-23T11:25:33.869Z,-0.60
2019-01-23T11:28:02.322Z,-0.30
2019-01-23T11:30:30.772Z,-0.80
2019-01-23T11:32:59.412Z,-0.90
2019-01-23T11:35:27.883Z,-0.70
2019-01-23T11:37:56.338Z,-0.60
2019-01-23T11:40:30.246Z,-0.30
2019-01-23T11:42:58.766Z,-0.40
2019-01-23T11:45:27.670Z,-0.10
2019-01-23T11:47:56.185Z,0.10
2019-01-23T11:50:24.629Z,0.10
2019-01-23T11:52:53.342Z,0.30
2019-01-23T11:55:22.119Z,0.20
2019-01-23T11:57:50.726Z,0.20
2019-01-23T12:00:22.435Z,0.10
2019-01-23T12:02:50.984Z,-0.10
2019-01-23T12:05:21.251Z,-0.10
2019-01-23T12:07:50.348Z,-0.40
2019-01-23T12:10:38.225Z,-0.60
2019-01-23T12:13:06.837Z,-0.60
2019-01-23T12:15:40.772Z,-0.60
2019-01-23T12:18:24.850Z,-0.80
2019-01-23T12:20:53.302Z,-0.60
2019-01-23T12:23:21.819Z,-0.60
2019-01-23T12:25:50.286Z,-0.50
2019-01-23T12:28:18.799Z,-0.50
2019-01-23T12:30:47.275Z,-0.40
2019-01-23T12:33:15.776Z,-0.40
2019-01-23T12:36:03.661Z,-0.40
2019-01-23T12:38:51.449Z,-0.40
2019-01-23T12:41:39.266Z,-0.40
2019-01-23T12:44:27.056Z,-0.40
2019-01-23T12:46:55.591Z,-0.30
2019-01-23T12:49:43.439Z,-0.30
2019-01-23T12:52:12.058Z,-0.20
2019-01-23T12:54:40.508Z,-0.30
2019-01-23T12:57:09.024Z,-0.40
2019-01-23T12:59:37.565Z,-0.20
2019-01-23T13:02:09.755Z,-0.20
2019-01-23T13:04:36.275Z,-0.20
2019-01-23T13:07:05.187Z,0.10
2019-01-23T13:09:33.626Z,0.00
2019-01-23T13:12:02.087Z,-0.10
2019-01-23T13:14:30.527Z,0.00
2019-01-23T13:16:59.058Z,0.00
2019-01-23T13:19:27.493Z,-0.10
2019-01-23T13:22:15.316Z,-0.20
2019-01-23T13:24:43.756Z,0.00
2019-01-23T13:27:12.297Z,0.00
2019-01-23T13:29:40.779Z,-0.10
2019-01-23T13:32:09.235Z,0.10
2019-01-23T13:34:37.738Z,0.30
2019-01-23T13:37:06.211Z,0.20
2019-01-23T13:39:34.724Z,0.10
2019-01-23T13:42:22.574Z,-0.10
2019-01-23T13:45:11.537Z,-0.20
2019-01-23T13:47:40.251Z,-0.20
2019-01-23T13:50:11.442Z,-0.20
2019-01-23T13:52:39.897Z,-0.10
2019-01-23T13:55:14.430Z,-0.10
2019-01-23T13:57:42.880Z,0.00
2019-01-23T14:00:32.274Z,0.00
2019-01-23T14:03:01.076Z,0.00
2019-01-23T14:05:29.590Z,-0.20
2019-01-23T14:07:58.123Z,-0.20
2019-01-23T14:10:26.763Z,-0.30
2019-01-23T14:12:55.580Z,-0.20
2019-01-23T14:15:32.413Z,-0.20
2019-01-23T14:18:01.031Z,-0.40
2019-01-23T14:20:29.700Z,-0.30
2019-01-23T14:22:58.282Z,-0.40
2019-01-23T14:25:26.979Z,-0.30
2019-01-23T14:27:55.577Z,-0.30
2019-01-23T14:30:44.978Z,-0.40
2019-01-23T14:33:13.611Z,-0.40
2019-01-23T14:35:42.394Z,-0.40
2019-01-23T14:38:10.918Z,-0.40
2019-01-23T14:40:39.366Z,-0.40
2019-01-23T14:43:07.914Z,-0.40
2019-01-23T14:45:36.427Z,-0.50
2019-01-23T14:48:05.806Z,-0.50
2019-01-23T14:50:34.520Z,-0.60
2019-01-23T14:53:03.718Z,-0.60
2019-01-23T14:55:32.242Z,-0.60
2019-01-23T14:58:00.717Z,-0.80
2019-01-23T15:00:31.743Z,-0.80
2019-01-23T15:03:00.240Z,-0.70
2019-01-23T15:05:28.715Z,-0.80
2019-01-23T15:08:18.023Z,-0.80
2019-01-23T15:10:46.496Z,-0.90
2019-01-23T15:13:14.949Z,-0.90
2019-01-23T15:15:43.419Z,-0.90
2019-01-23T15:18:12.051Z,-1.00
2019-01-23T15:20:40.590Z,-1.10
2019-01-23T15:23:09.034Z,-1.20
2019-01-23T15:25:37.578Z,-1.20
2019-01-23T15:28:06.355Z,-1.20
2019-01-23T15:30:35.243Z,-1.30
2019-01-23T15:33:23.055Z,-1.20
2019-01-23T15:35:52.198Z,-1.30
2019-01-23T15:38:20.868Z,-1.40
2019-01-23T15:40:49.318Z,-1.50
2019-01-23T15:43:17.784Z,-1.50
2019-01-23T15:45:46.231Z,-1.50
2019-01-23T15:48:14.692Z,-1.50
2019-01-23T15:50:43.146Z,-1.60
2019-01-23T15:53:11.944Z,-1.50
2019-01-23T15:55:40.555Z,-1.60
2019-01-23T15:58:09.005Z,-1.60
2019-01-23T16:00:37.532Z,-1.70
2019-01-23T16:03:06.210Z,-1.70
2019-01-23T16:05:34.653Z,-1.80
2019-01-23T16:08:03.203Z,-1.80
2019-01-23T16:10:31.788Z,-1.90
2019-01-23T16:13:00.232Z,-1.90
2019-01-23T16:15:50.104Z,-1.90
2019-01-23T16:18:18.691Z,-1.90
2019-01-23T16:20:47.156Z,-1.90
2019-01-23T16:23:15.599Z,-1.90
2019-01-23T16:25:44.139Z,-1.90
2019-01-23T16:28:12.599Z,-2.00
2019-01-23T16:30:41.108Z,-2.00
2019-01-23T16:33:09.807Z,-2.00
2019-01-23T16:35:38.921Z,-2.10
2019-01-23T16:38:07.930Z,-2.00
2019-01-23T16:40:36.552Z,-2.10
2019-01-23T16:43:05.355Z,-2.10
2019-01-23T16:45:34.065Z,-2.10
2019-01-23T16:48:02.736Z,-2.10
2019-01-23T16:50:32.217Z,-2.20
2019-01-23T16:53:20.053Z,-2.10
2019-01-23T16:55:48.569Z,-2.10
2019-01-23T16:58:17.393Z,-2.10
2019-01-23T17:00:46.241Z,-2.10
2019-01-23T17:03:14.934Z,-2.10
2019-01-23T17:05:44.165Z,-2.20
2019-01-23T17:08:12.793Z,-2.20
2019-01-23T17:10:41.318Z,-2.20
2019-01-23T17:13:09.851Z,-2.20
2019-01-23T17:15:38.316Z,-2.20
2019-01-23T17:18:07.191Z,-2.20
2019-01-23T17:20:41.468Z,-2.20
2019-01-23T17:23:10.124Z,-2.20
2019-01-23T17:25:38.653Z,-2.30
2019-01-23T17:28:08.236Z,-2.30
2019-01-23T17:30:36.872Z,-2.30
2019-01-23T17:33:05.663Z,-2.30
2019-01-23T17:35:34.102Z,-2.30
2019-01-23T17:38:02.564Z,-2.30
2019-01-23T17:40:31.108Z,-2.30
2019-01-23T17:42:59.553Z,-2.30
2019-01-23T17:45:36.703Z,-2.30
2019-01-23T17:48:25.655Z,-2.20
2019-01-23T17:51:13.457Z,-2.20
2019-01-23T17:54:01.245Z,-2.20
2019-01-23T17:56:32.086Z,-2.20
2019-01-23T17:59:00.930Z,-2.10
2019-01-23T18:01:29.781Z,-2.10
2019-01-23T18:03:58.249Z,-2.10
2019-01-23T18:06:26.761Z,-2.10
2019-01-23T18:09:14.640Z,-2.10
2019-01-23T18:11:43.172Z,-2.10
2019-01-23T18:14:11.683Z,-2.00
2019-01-23T18:16:40.163Z,-2.00
2019-01-23T18:19:27.947Z,-2.00
2019-01-23T18:21:56.403Z,-1.90
2019-01-23T18:24:24.927Z,-2.00
2019-01-23T18:26:53.443Z,-2.00
2019-01-23T18:29:22.046Z,-2.00
2019-01-23T18:31:50.565Z,-2.00
2019-01-23T18:34:42.063Z,-2.00
2019-01-23T18:37:16.633Z,-2.10
2019-01-23T18:40:06.043Z,-2.20
2019-01-23T18:42:37.996Z,-2.20
2019-01-23T18:45:18.528Z,-2.20
2019-01-23T18:48:09.468Z,-2.30
2019-01-23T18:50:58.811Z,-2.30
2019-01-23T18:53:27.263Z,-2.30
2019-01-23T18:55:56.005Z,-2.30
2019-01-23T18:58:24.607Z,-2.30
2019-01-23T19:00:53.126Z,-2.30
2019-01-23T19:03:21.563Z,-2.30
2019-01-23T19:05:50.043Z,-2.30
2019-01-23T19:08:18.507Z,-2.30
2019-01-23T19:11:08.135Z,-2.30
2019-01-23T19:13:36.595Z,-2.30
2019-01-23T19:16:06.080Z,-2.30
2019-01-23T19:18:53.935Z,-2.20
2019-01-23T19:21:22.454Z,-2.10
2019-01-23T19:23:50.965Z,-2.10
2019-01-23T19:26:19.444Z,-2.10
2019-01-23T19:28:47.954Z,-2.10
2019-01-23T19:31:16.395Z,-2.10
2019-01-23T19:33:44.934Z,-2.20
2019-01-23T19:36:13.483Z,-2.20
2019-01-23T19:38:41.960Z,-2.20
2019-01-23T19:41:10.566Z,-2.20
2019-01-23T19:43:39.017Z,-2.30
2019-01-23T19:46:26.814Z,-2.30
2019-01-23T19:48:55.260Z,-2.30
2019-01-23T19:51:43.067Z,-2.40
2019-01-23T19:54:11.510Z,-2.50
2019-01-23T19:56:40.211Z,-2.50
2019-01-23T19:59:08.731Z,-2.50
2019-01-23T20:01:56.459Z,-2.40
2019-01-23T20:04:24.928Z,-2.40
2019-01-23T20:06:53.371Z,-2.40
2019-01-23T20:09:22.700Z,-2.40
2019-01-23T20:11:51.232Z,-2.50
2019-01-23T20:14:19.744Z,-2.50
2019-01-23T20:16:48.212Z,-2.40
2019-01-23T20:19:16.723Z,-2.30
2019-01-23T20:21:45.167Z,-2.40
2019-01-23T20:24:32.972Z,-2.30
2019-01-23T20:27:01.655Z,-2.30
2019-01-23T20:29:30.175Z,-2.30
2019-01-23T20:31:58.721Z,-2.40
2019-01-23T20:34:27.265Z,-2.30
2019-01-23T20:36:55.779Z,-2.30
2019-01-23T20:39:24.244Z,-2.40
2019-01-23T20:41:52.684Z,-2.50
2019-01-23T20:44:40.485Z,-2.50
2019-01-23T20:47:28.271Z,-2.50
2019-01-23T20:49:56.756Z,-2.50
2019-01-23T20:52:25.407Z,-2.60
2019-01-23T20:54:53.850Z,-2.70
2019-01-23T20:57:22.314Z,-2.60
2019-01-23T20:59:51.286Z,-2.60
2019-01-23T21:02:19.746Z,-2.50
2019-01-23T21:04:48.193Z,-2.50
2019-01-23T21:07:16.651Z,-2.50
2019-01-23T21:09:45.094Z,-2.50
2019-01-23T21:12:18.588Z,-2.50
2019-01-23T21:14:43.750Z,-2.60
2019-01-23T21:17:12.179Z,-2.60
2019-01-23T21:19:40.654Z,-2.60
2019-01-23T21:22:09.090Z,-2.50
2019-01-23T21:24:37.536Z,-2.50
2019-01-23T21:27:06.002Z,-2.50
2019-01-23T21:29:34.440Z,-2.40
2019-01-23T21:32:02.919Z,-2.40
2019-01-23T21:34:50.765Z,-2.40
2019-01-23T21:37:19.208Z,-2.40
2019-01-23T21:39:47.643Z,-2.40
2019-01-23T21:42:16.121Z,-2.40
2019-01-23T21:44:44.636Z,-2.40
2019-01-23T21:47:13.077Z,-2.50
2019-01-23T21:49:41.550Z,-2.50
2019-01-23T21:52:09.987Z,-2.50
2019-01-23T21:54:38.427Z,-2.50
2019-01-23T21:57:07.062Z,-2.50
2019-01-23T21:59:35.789Z,-2.50
2019-01-23T22:02:04.663Z,-2.50
2019-01-23T22:04:33.200Z,-2.50
2019-01-23T22:07:01.718Z,-2.50
2019-01-23T22:09:30.159Z,-2.50
2019-01-23T22:11:58.609Z,-2.50
2019-01-23T22:14:27.054Z,-2.50
2019-01-23T22:16:55.525Z,-2.50
2019-01-23T22:19:23.962Z,-2.50
2019-01-23T22:21:53.499Z,-2.50
2019-01-23T22:24:22.135Z,-2.40
2019-01-23T22:26:50.648Z,-2.40
2019-01-23T22:29:38.454Z,-2.50
2019-01-23T22:32:06.917Z,-2.50
2019-01-23T22:34:35.354Z,-2.60
2019-01-23T22:37:04.266Z,-2.50
2019-01-23T22:39:32.704Z,-2.50
2019-01-23T22:42:20.514Z,-2.40
2019-01-23T22:44:48.958Z,-2.40
2019-01-23T22:47:17.476Z,-2.40
2019-01-23T22:49:45.944Z,-2.40
2019-01-23T22:52:14.488Z,-2.40
2019-01-23T22:54:43.094Z,-2.40
2019-01-23T22:57:11.559Z,-2.50
2019-01-23T22:59:39.997Z,-2.50
2019-01-23T23:02:08.504Z,-2.50
2019-01-23T23:04:37.013Z,-2.50
2019-01-23T23:07:05.678Z,-2.50
2019-01-23T23:09:34.122Z,-2.60
2019-01-23T23:12:02.664Z,-2.60
2019-01-23T23:14:31.181Z,-2.70
2019-01-23T23:16:59.700Z,-2.80
2019-01-23T23:19:28.236Z,-2.90
2019-01-23T23:21:59.486Z,-2.80
2019-01-23T23:24:28.014Z,-2.80
2019-01-23T23:26:56.554Z,-2.80
2019-01-23T23:29:24.987Z,-2.80
2019-01-23T23:31:53.438Z,-2.90
2019-01-23T23:34:21.900Z,-2.80
2019-01-23T23:36:50.412Z,-2.90
2019-01-23T23:39:18.858Z,-2.80
2019-01-23T23:41:47.392Z,-2.80
2019-01-23T23:44:15.908Z,-2.80
2019-01-23T23:47:03.776Z,-2.90
2019-01-23T23:49:32.227Z,-2.90
2019-01-23T23:52:00.741Z,-3.00
2019-01-23T23:54:29.293Z,-3.20
2019-01-23T23:56:57.820Z,-3.30
2019-01-23T23:59:26.261Z,-3.30
